Time;durP1;ratioP1;P1;durP2;ratioP2;P2;SDS_P1;SDS_P2;PMS_P1;PMS_P2;Temp;Humidity;BMP_temperature;BMP_pressure;BME280_temperature;BME280_humidity;BME280_pressure;Samples;Min_cycle;Max_cycle;Signal;HPM_P1;HPM_P2
2023/09/10 00:00:22;;;;;;;9.95;9.10;;;19.90;1.00;;;;;;5047529;28;20822;-86
2023/09/10 00:02:48;;;;;;;10.68;9.68;;;19.90;1.00;;;;;;5029830;28;20414;-86
2023/09/10 00:05:13;;;;;;;10.10;9.10;;;18.90;1.00;;;;;;5029432;28;20454;-85
2023/09/10 00:07:39;;;;;;;10.50;9.33;;;19.80;1.00;;;;;;5030840;28;20446;-85
2023/09/10 00:10:05;;;;;;;10.90;10.00;;;19.70;1.00;;;;;;5047851;28;20389;-85
2023/09/10 00:12:31;;;;;;;10.32;9.23;;;19.80;1.00;;;;;;5051458;28;20413;-85
2023/09/10 00:14:56;;;;;;;10.50;9.60;;;19.50;1.00;;;;;;5032969;28;20475;-85
2023/09/10 00:17:22;;;;;;;10.47;9.47;;;19.60;1.00;;;;;;5043903;28;20389;-86
2023/09/10 00:19:47;;;;;;;9.65;8.75;;;19.80;1.00;;;;;;5050763;28;20387;-85
2023/09/10 00:22:13;;;;;;;10.47;9.47;;;19.80;1.00;;;;;;5071614;28;20389;-85
2023/09/10 00:24:38;;;;;;;10.23;9.23;;;20.40;1.00;;;;;;5053288;28;20446;-85
2023/09/10 00:27:04;;;;;;;9.90;8.90;;;18.90;1.00;;;;;;5042937;28;20769;-85
2023/09/10 00:29:30;;;;;;;10.43;9.43;;;19.60;1.00;;;;;;5052369;28;20781;-85
2023/09/10 00:31:55;;;;;;;10.77;9.77;;;19.40;1.00;;;;;;5033955;28;20455;-85
2023/09/10 00:34:21;;;;;;;10.63;9.73;;;18.50;1.00;;;;;;5049660;28;20420;-85
2023/09/10 00:36:46;;;;;;;10.68;9.57;;;19.50;1.00;;;;;;5053378;28;20407;-85
2023/09/10 00:39:12;;;;;;;11.47;10.10;;;18.80;1.00;;;;;;5072061;28;20416;-85
2023/09/10 00:41:37;;;;;;;10.50;9.50;;;19.80;1.00;;;;;;5037561;28;20416;-85
2023/09/10 00:44:03;;;;;;;11.23;10.23;;;18.80;1.00;;;;;;5053376;28;20409;-85
2023/09/10 00:46:29;;;;;;;10.68;9.57;;;19.50;1.00;;;;;;5033631;28;20424;-86
2023/09/10 00:48:56;;;;;;;11.60;10.40;;;19.20;1.00;;;;;;5053211;28;20476;-85
2023/09/10 00:51:22;;;;;;;10.60;9.60;;;18.40;1.00;;;;;;5033989;28;20514;-85
2023/09/10 00:53:49;;;;;;;10.63;9.60;;;19.50;1.00;;;;;;5034627;28;20435;-85
2023/09/10 00:56:15;;;;;;;10.65;9.55;;;18.80;1.00;;;;;;5050366;28;20924;-85
2023/09/10 00:58:41;;;;;;;13.00;10.70;;;19.30;1.00;;;;;;5049615;28;20397;-85
2023/09/10 01:01:08;;;;;;;11.68;9.57;;;19.20;1.00;;;;;;5048635;28;20391;-84
2023/09/10 01:03:35;;;;;;;12.68;9.80;;;19.10;1.00;;;;;;5052474;28;20404;-84
2023/09/10 01:06:01;;;;;;;11.02;10.02;;;18.60;1.00;;;;;;5030454;28;20899;-85
2023/09/10 01:08:26;;;;;;;10.45;9.45;;;18.90;1.00;;;;;;5038306;28;20395;-85
2023/09/10 01:11:10;;;;;;;11.27;10.17;;;19.00;1.00;;;;;;5034075;28;20490;-85
2023/09/10 01:14:08;;;;;;;11.02;10.02;;;18.20;1.00;;;;;;5047843;28;20424;-85
2023/09/10 01:16:44;;;;;;;11.27;10.07;;;19.00;1.00;;;;;;5051668;28;20389;-85
2023/09/10 01:19:58;;;;;;;11.37;10.37;;;19.20;1.00;;;;;;5032745;28;20397;-85
2023/09/10 01:22:45;;;;;;;11.70;10.60;;;19.20;1.00;;;;;;5031348;28;20467;-85
2023/09/10 01:25:11;;;;;;;10.40;9.45;;;19.20;1.00;;;;;;5051305;28;20413;-85
2023/09/10 01:27:37;;;;;;;11.48;10.48;;;19.20;1.00;;;;;;5057770;28;20518;-86
2023/09/10 01:30:04;;;;;;;11.40;10.20;;;18.40;1.00;;;;;;5075742;28;20417;-86
2023/09/10 01:32:40;;;;;;;11.05;9.95;;;19.00;1.00;;;;;;5075590;28;20408;-84
2023/09/10 01:35:13;;;;;;;10.63;9.63;;;19.30;1.00;;;;;;5053255;28;20409;-85
2023/09/10 01:37:59;;;;;;;10.63;9.63;;;18.80;1.00;;;;;;5072852;28;20432;-85
2023/09/10 01:40:30;;;;;;;11.10;10.10;;;19.00;1.00;;;;;;5034123;28;20484;-85
2023/09/10 01:42:56;;;;;;;11.20;10.20;;;19.00;1.00;;;;;;5030135;28;20383;-85
2023/09/10 01:45:22;;;;;;;10.63;9.53;;;19.10;1.00;;;;;;5048521;28;20502;-85
2023/09/10 01:47:48;;;;;;;11.10;10.10;;;18.10;1.00;;;;;;5053899;28;20387;-85
2023/09/10 01:50:14;;;;;;;10.90;10.00;;;18.90;1.00;;;;;;5054142;28;20414;-85
2023/09/10 01:52:39;;;;;;;11.05;10.02;;;18.50;1.00;;;;;;5037889;28;20472;-84
2023/09/10 01:55:05;;;;;;;11.53;10.43;;;18.10;1.00;;;;;;5048411;28;20493;-85
2023/09/10 01:57:31;;;;;;;11.73;10.40;;;18.90;1.00;;;;;;5031589;28;20391;-86
2023/09/10 01:59:57;;;;;;;10.38;9.38;;;18.00;1.00;;;;;;5032838;28;20412;-85
2023/09/10 02:02:22;;;;;;;10.73;9.73;;;19.00;1.00;;;;;;5050244;28;20381;-86
2023/09/10 02:04:48;;;;;;;11.20;10.20;;;18.40;1.00;;;;;;5030915;28;20424;-85
2023/09/10 02:07:13;;;;;;;13.27;10.60;;;19.10;1.00;;;;;;5050247;28;20397;-85
2023/09/10 02:09:38;;;;;;;11.03;10.03;;;19.00;1.00;;;;;;5032489;28;20451;-85
2023/09/10 02:12:04;;;;;;;11.43;10.03;;;18.90;1.00;;;;;;5031516;28;20404;-84
2023/09/10 02:14:30;;;;;;;11.27;9.37;;;18.90;1.00;;;;;;5030746;28;20901;-85
2023/09/10 02:16:55;;;;;;;11.18;10.18;;;18.90;1.00;;;;;;5032261;28;20443;-85
2023/09/10 02:19:21;;;;;;;9.97;9.13;;;18.60;1.00;;;;;;5050414;28;20404;-85
2023/09/10 02:21:46;;;;;;;11.07;9.88;;;17.80;1.00;;;;;;5033281;28;20416;-85
2023/09/10 02:24:12;;;;;;;10.80;9.80;;;19.00;1.00;;;;;;5036623;28;20397;-85
2023/09/10 02:26:37;;;;;;;11.68;10.48;;;18.10;1.00;;;;;;5029130;28;20399;-86
2023/09/10 02:29:03;;;;;;;10.30;9.50;;;20.00;1.00;;;;;;5049567;28;20401;-85
2023/09/10 02:31:28;;;;;;;10.60;9.50;;;18.70;1.00;;;;;;5050411;28;20476;-85
2023/09/10 02:34:00;;;;;;;10.20;9.20;;;18.60;1.00;;;;;;5031347;28;20434;-85
2023/09/10 02:36:26;;;;;;;10.77;9.60;;;19.20;1.00;;;;;;5030486;28;20774;-85
2023/09/10 02:38:51;;;;;;;10.52;9.52;;;18.70;1.00;;;;;;5031401;28;20394;-85
2023/09/10 02:41:17;;;;;;;10.30;9.30;;;19.00;1.00;;;;;;5031611;28;20386;-85
2023/09/10 02:43:42;;;;;;;9.77;8.97;;;19.10;1.00;;;;;;5031953;28;20506;-85
2023/09/10 02:46:08;;;;;;;10.35;9.38;;;18.80;1.00;;;;;;5048328;28;20392;-85
2023/09/10 02:48:33;;;;;;;10.70;9.60;;;18.70;1.00;;;;;;5031976;28;20451;-85
2023/09/10 02:50:59;;;;;;;9.85;8.85;;;18.10;1.00;;;;;;5030661;28;20389;-85
2023/09/10 02:53:24;;;;;;;10.53;9.63;;;20.50;1.00;;;;;;5034358;28;20381;-85
2023/09/10 02:56:00;;;;;;;10.70;9.70;;;18.70;1.00;;;;;;5030312;28;21356;-85
2023/09/10 02:58:26;;;;;;;9.77;8.77;;;20.50;1.00;;;;;;5031644;28;20432;-85
2023/09/10 03:00:51;;;;;;;10.13;9.30;;;18.60;1.00;;;;;;5031572;28;20369;-85
2023/09/10 03:03:19;;;;;;;10.43;9.43;;;19.90;1.00;;;;;;5031427;28;20974;-85
2023/09/10 03:05:45;;;;;;;11.35;9.90;;;18.80;1.00;;;;;;5048188;28;20897;-85
2023/09/10 03:08:11;;;;;;;10.48;9.57;;;18.80;1.00;;;;;;5049238;28;20876;-85
2023/09/10 03:10:36;;;;;;;11.23;9.97;;;19.20;1.00;;;;;;5031501;28;20384;-85
2023/09/10 03:13:02;;;;;;;10.43;9.30;;;18.90;1.00;;;;;;5031696;28;20394;-85
2023/09/10 03:15:27;;;;;;;11.15;10.15;;;18.80;1.00;;;;;;5047889;28;20451;-85
2023/09/10 03:17:53;;;;;;;10.80;9.80;;;18.50;1.00;;;;;;5062655;28;20401;-85
2023/09/10 03:20:18;;;;;;;11.10;9.90;;;18.60;1.00;;;;;;5052301;28;20377;-85
2023/09/10 03:22:44;;;;;;;10.30;9.30;;;17.60;1.00;;;;;;5067439;28;20426;-86
2023/09/10 03:25:10;;;;;;;12.18;10.00;;;19.40;1.00;;;;;;5049126;28;20466;-86
2023/09/10 03:27:35;;;;;;;9.73;8.82;;;18.50;1.00;;;;;;5032177;28;20386;-86
2023/09/10 03:30:05;;;;;;;10.43;9.50;;;19.20;1.00;;;;;;5032101;28;20389;-85
2023/09/10 03:32:30;;;;;;;11.40;10.30;;;18.40;1.00;;;;;;5031690;28;20393;-85
2023/09/10 03:34:56;;;;;;;10.40;9.50;;;17.10;1.00;;;;;;5048528;28;20392;-85
2023/09/10 03:37:21;;;;;;;10.65;9.65;;;18.40;1.00;;;;;;5032370;28;20396;-85
2023/09/10 03:39:47;;;;;;;11.20;10.20;;;18.20;1.00;;;;;;5039705;28;20394;-85
2023/09/10 03:42:12;;;;;;;11.00;10.00;;;17.70;1.00;;;;;;5040203;28;20390;-85
2023/09/10 03:44:38;;;;;;;11.17;10.07;;;18.40;1.00;;;;;;5049021;28;20416;-85
2023/09/10 03:47:04;;;;;;;11.15;10.05;;;17.70;1.00;;;;;;5052889;28;20435;-85
2023/09/10 03:49:29;;;;;;;10.90;10.00;;;18.50;1.00;;;;;;5054822;28;20396;-85
2023/09/10 03:51:57;;;;;;;10.90;10.00;;;17.30;1.00;;;;;;5045680;28;20423;-85
2023/09/10 03:54:23;;;;;;;10.80;9.80;;;17.00;1.00;;;;;;5054498;28;20393;-85
2023/09/10 03:56:48;;;;;;;11.05;10.10;;;19.50;1.00;;;;;;5054789;28;20393;-85
2023/09/10 03:59:14;;;;;;;11.00;10.00;;;18.20;1.00;;;;;;5054161;28;20397;-85
2023/09/10 04:01:39;;;;;;;11.57;10.37;;;17.30;1.00;;;;;;5032046;28;20544;-85
2023/09/10 04:04:05;;;;;;;11.45;10.27;;;18.30;1.00;;;;;;5051488;28;20402;-85
2023/09/10 04:06:31;;;;;;;11.57;10.40;;;18.30;1.00;;;;;;5053222;28;20389;-85
2023/09/10 04:08:56;;;;;;;11.17;10.10;;;17.80;1.00;;;;;;5053118;28;20393;-85
2023/09/10 04:11:22;;;;;;;11.30;10.30;;;19.90;1.00;;;;;;5034485;28;20400;-85
2023/09/10 04:13:47;;;;;;;11.33;10.33;;;18.00;1.00;;;;;;5053558;28;20385;-85
2023/09/10 04:16:13;;;;;;;11.20;10.20;;;19.00;1.00;;;;;;5034296;28;20448;-87
2023/09/10 04:18:40;;;;;;;11.77;10.68;;;17.80;1.00;;;;;;5035130;28;20888;-86
2023/09/10 04:21:06;;;;;;;10.80;9.73;;;17.00;1.00;;;;;;5053699;28;20404;-86
2023/09/10 04:23:32;;;;;;;11.30;10.30;;;17.80;1.00;;;;;;5035561;28;20401;-86
2023/09/10 04:25:57;;;;;;;11.13;10.03;;;17.00;1.00;;;;;;5052297;28;20385;-86
2023/09/10 04:28:23;;;;;;;10.67;9.57;;;17.70;1.00;;;;;;5053644;28;20498;-86
2023/09/10 04:30:49;;;;;;;12.48;11.27;;;17.60;1.00;;;;;;5052949;28;20385;-86
2023/09/10 04:33:16;;;;;;;10.88;9.88;;;17.60;1.00;;;;;;5035000;28;20969;-86
2023/09/10 04:35:50;;;;;;;11.85;10.75;;;16.70;1.00;;;;;;5034641;28;20424;-86
2023/09/10 04:38:16;;;;;;;12.00;10.80;;;16.90;1.00;;;;;;5035796;28;20392;-86
2023/09/10 04:40:41;;;;;;;12.68;11.48;;;17.70;1.00;;;;;;5034085;28;20381;-86
2023/09/10 04:43:07;;;;;;;12.80;11.52;;;17.60;1.00;;;;;;5031211;28;20395;-86
2023/09/10 04:45:33;;;;;;;14.48;11.80;;;17.00;1.00;;;;;;5032957;28;20912;-86
2023/09/10 04:47:59;;;;;;;11.15;10.25;;;17.60;1.00;;;;;;5033193;28;20402;-86
2023/09/10 04:50:24;;;;;;;13.23;11.03;;;17.10;1.00;;;;;;5034260;28;20400;-86
2023/09/10 04:52:51;;;;;;;11.95;10.93;;;17.90;1.00;;;;;;5052108;28;20774;-86
2023/09/10 04:55:17;;;;;;;12.75;11.52;;;17.20;1.00;;;;;;5053408;28;20393;-86
2023/09/10 04:57:43;;;;;;;12.32;11.13;;;17.60;1.00;;;;;;5072401;28;20385;-85
2023/09/10 05:00:09;;;;;;;12.13;11.13;;;17.20;1.00;;;;;;5069577;28;20385;-86
2023/09/10 05:02:34;;;;;;;11.90;11.00;;;17.60;1.00;;;;;;5056382;28;20409;-86
2023/09/10 05:05:00;;;;;;;13.00;11.70;;;17.60;1.00;;;;;;5055844;28;20516;-86
2023/09/10 05:07:25;;;;;;;13.48;10.73;;;17.50;1.00;;;;;;5046216;28;20510;-84
2023/09/10 05:09:51;;;;;;;12.50;11.30;;;17.10;1.00;;;;;;5053355;28;20385;-83
2023/09/10 05:12:16;;;;;;;11.83;10.73;;;17.10;1.00;;;;;;5034288;28;20385;-84
2023/09/10 05:14:42;;;;;;;11.97;10.87;;;20.40;1.00;;;;;;5033776;28;20398;-84
2023/09/10 05:17:07;;;;;;;11.90;10.90;;;17.30;1.00;;;;;;5053528;28;20424;-85
2023/09/10 05:19:33;;;;;;;12.27;11.02;;;17.60;1.00;;;;;;5033364;28;20400;-85
2023/09/10 05:21:59;;;;;;;12.23;11.13;;;16.90;1.00;;;;;;5050882;28;20401;-85
2023/09/10 05:24:24;;;;;;;12.77;11.68;;;17.20;1.00;;;;;;5031879;28;20428;-85
2023/09/10 05:26:50;;;;;;;12.27;10.88;;;16.50;1.00;;;;;;5048668;28;20386;-84
2023/09/10 05:29:16;;;;;;;10.70;9.70;;;17.30;1.00;;;;;;5055595;28;20387;-84
2023/09/10 05:31:41;;;;;;;11.50;10.60;;;17.60;1.00;;;;;;5057355;28;20408;-84
2023/09/10 05:34:07;;;;;;;11.95;10.85;;;17.50;1.00;;;;;;5052019;28;20466;-85
2023/09/10 05:36:34;;;;;;;12.40;11.30;;;16.70;1.00;;;;;;5051562;28;20385;-85
2023/09/10 05:39:00;;;;;;;10.75;9.85;;;17.30;1.00;;;;;;5033317;28;20394;-85
2023/09/10 05:41:26;;;;;;;11.90;10.90;;;17.00;1.00;;;;;;5050191;28;20919;-85
2023/09/10 05:43:51;;;;;;;13.07;10.60;;;17.80;1.00;;;;;;5031598;28;20401;-85
2023/09/10 05:46:17;;;;;;;12.20;11.10;;;17.80;1.00;;;;;;5030982;28;20948;-85
2023/09/10 05:48:43;;;;;;;12.10;10.85;;;16.70;1.00;;;;;;5050883;28;20512;-85
2023/09/10 05:51:08;;;;;;;11.50;10.50;;;17.10;1.00;;;;;;5029594;28;20387;-85
2023/09/10 05:53:34;;;;;;;11.77;10.60;;;17.80;1.00;;;;;;5029895;28;20986;-84
2023/09/10 05:56:04;;;;;;;12.00;11.00;;;17.70;1.00;;;;;;5029598;28;20492;-85
2023/09/10 05:58:29;;;;;;;11.93;10.70;;;17.90;1.00;;;;;;5051724;28;20429;-84
2023/09/10 06:00:55;;;;;;;9.85;9.02;;;17.70;1.00;;;;;;5036811;28;20389;-84
2023/09/10 06:03:20;;;;;;;10.93;9.93;;;19.80;1.00;;;;;;5033286;28;20413;-84
2023/09/10 06:05:48;;;;;;;11.50;10.40;;;17.80;1.00;;;;;;5053086;28;20393;-85
2023/09/10 06:08:13;;;;;;;11.97;10.30;;;20.50;1.00;;;;;;5037980;28;20475;-85
2023/09/10 06:10:39;;;;;;;12.13;10.80;;;18.20;1.00;;;;;;5047843;28;20390;-85
2023/09/10 06:13:04;;;;;;;11.05;10.05;;;18.10;1.00;;;;;;5038066;28;20398;-86
2023/09/10 06:15:30;;;;;;;11.50;10.50;;;17.80;1.00;;;;;;5031954;28;20395;-85
2023/09/10 06:17:55;;;;;;;11.40;10.30;;;17.90;1.00;;;;;;5036440;28;20389;-86
2023/09/10 06:20:21;;;;;;;10.60;9.50;;;20.50;1.00;;;;;;5054029;28;20393;-86
2023/09/10 06:22:47;;;;;;;10.55;9.55;;;18.10;1.00;;;;;;5054156;28;20935;-86
2023/09/10 06:25:12;;;;;;;11.25;10.25;;;18.50;1.00;;;;;;5035826;28;20405;-86
2023/09/10 06:27:38;;;;;;;10.70;9.70;;;18.50;1.00;;;;;;5075431;22;20398;-81
2023/09/10 06:30:04;;;;;;;11.10;10.20;;;18.50;1.00;;;;;;5052149;28;20445;-81
2023/09/10 06:32:29;;;;;;;11.00;10.00;;;18.60;1.00;;;;;;5049856;28;20800;-80
2023/09/10 06:34:55;;;;;;;10.80;9.90;;;18.70;1.00;;;;;;5032734;28;20382;-81
2023/09/10 06:37:20;;;;;;;10.43;9.50;;;18.60;1.00;;;;;;5053079;28;20416;-81
2023/09/10 06:39:46;;;;;;;11.00;9.90;;;18.70;1.00;;;;;;5052539;28;20461;-82
2023/09/10 06:42:15;;;;;;;11.00;10.00;;;18.80;1.00;;;;;;5052282;28;20386;-82
2023/09/10 06:44:44;;;;;;;10.77;9.80;;;18.70;1.00;;;;;;5037863;28;20397;-81
2023/09/10 06:47:10;;;;;;;10.98;9.88;;;18.90;1.00;;;;;;5057289;28;20393;-82
2023/09/10 06:49:36;;;;;;;10.90;9.90;;;19.00;1.00;;;;;;5062454;28;20464;-80
2023/09/10 06:52:01;;;;;;;11.00;10.10;;;19.10;1.00;;;;;;5044562;28;20401;-81
2023/09/10 06:54:27;;;;;;;10.63;9.73;;;19.10;1.00;;;;;;5035742;28;20401;-82
2023/09/10 06:56:52;;;;;;;10.23;9.43;;;19.20;1.00;;;;;;5054369;28;20397;-81
2023/09/10 06:59:18;;;;;;;10.23;8.73;;;19.30;1.00;;;;;;5037975;28;20404;-81
2023/09/10 07:01:44;;;;;;;9.80;9.00;;;19.40;1.00;;;;;;5055005;28;20400;-81
2023/09/10 07:04:20;;;;;;;10.48;9.57;;;19.50;1.00;;;;;;5040123;28;20769;-81
2023/09/10 07:06:47;;;;;;;10.55;9.65;;;19.60;1.00;;;;;;5055415;28;20377;-83
2023/09/10 07:09:13;;;;;;;10.40;9.30;;;19.70;1.00;;;;;;5052290;28;20391;-80
2023/09/10 07:11:39;;;;;;;11.18;10.18;;;19.10;1.00;;;;;;5036231;28;20385;-80
2023/09/10 07:14:04;;;;;;;11.15;9.65;;;19.40;1.00;;;;;;5050270;28;20387;-81
2023/09/10 07:16:30;;;;;;;10.20;9.23;;;19.90;1.00;;;;;;5052293;28;20389;-81
2023/09/10 07:18:55;;;;;;;9.75;8.85;;;19.90;1.00;;;;;;5052336;28;20388;-81
2023/09/10 07:21:21;;;;;;;10.20;9.20;;;20.10;1.00;;;;;;5056061;28;20443;-81
2023/09/10 07:23:46;;;;;;;9.67;8.87;;;20.30;1.00;;;;;;5039647;28;20815;-81
2023/09/10 07:26:12;;;;;;;10.67;9.63;;;20.30;1.00;;;;;;5038202;28;20901;-81
2023/09/10 07:28:37;;;;;;;10.17;9.17;;;19.70;1.00;;;;;;5055739;28;20431;-81
2023/09/10 07:31:03;;;;;;;9.80;8.80;;;20.40;1.00;;;;;;5056950;28;20730;-81
2023/09/10 07:33:28;;;;;;;8.93;8.13;;;20.70;1.00;;;;;;5041328;28;20392;-81
2023/09/10 07:35:55;;;;;;;10.45;9.27;;;20.60;1.00;;;;;;5038974;28;20896;-82
2023/09/10 07:38:20;;;;;;;9.90;9.00;;;20.60;1.00;;;;;;5055855;28;20385;-82
2023/09/10 07:40:46;;;;;;;9.60;8.70;;;20.70;1.00;;;;;;5037395;28;20954;-82
2023/09/10 07:43:11;;;;;;;15.50;8.60;;;20.80;1.00;;;;;;5057102;28;20400;-82
2023/09/10 07:45:39;;;;;;;9.50;8.70;;;21.00;1.00;;;;;;5038901;28;20435;-83
2023/09/10 07:48:05;;;;;;;8.70;8.00;;;21.50;1.00;;;;;;5059637;28;20869;-80
2023/09/10 07:50:31;;;;;;;9.32;8.52;;;21.10;1.00;;;;;;5043037;28;20543;-82
2023/09/10 07:52:56;;;;;;;9.38;8.65;;;22.20;1.00;;;;;;5041701;28;20390;-82
2023/09/10 07:55:22;;;;;;;8.30;7.60;;;21.30;1.00;;;;;;5057405;28;20845;-82
2023/09/10 07:57:48;;;;;;;8.82;8.02;;;21.80;1.00;;;;;;5040146;28;20400;-81
2023/09/10 08:00:14;;;;;;;9.55;8.15;;;21.90;1.00;;;;;;5058132;28;20476;-82
2023/09/10 08:02:40;;;;;;;10.55;8.80;;;22.00;1.00;;;;;;5058217;28;20399;-82
2023/09/10 08:05:06;;;;;;;9.40;8.60;;;22.30;1.00;;;;;;5056996;28;20899;-81
2023/09/10 08:07:32;;;;;;;9.40;8.60;;;22.30;1.00;;;;;;5058811;28;20424;-82
2023/09/10 08:09:57;;;;;;;9.70;8.80;;;22.30;1.00;;;;;;5059872;28;20409;-82
2023/09/10 08:12:23;;;;;;;13.20;9.73;;;22.40;1.00;;;;;;5063647;28;20386;-82
2023/09/10 08:14:48;;;;;;;10.00;9.10;;;22.70;1.00;;;;;;5068586;28;20401;-82
2023/09/10 08:17:14;;;;;;;8.95;8.10;;;23.30;1.00;;;;;;5037746;28;20385;-83
2023/09/10 08:19:40;;;;;;;9.57;8.77;;;22.90;1.00;;;;;;5038737;28;20385;-83
2023/09/10 08:22:05;;;;;;;9.10;8.30;;;22.60;1.00;;;;;;5041690;28;20381;-83
2023/09/10 08:24:31;;;;;;;9.20;8.30;;;23.00;1.00;;;;;;5043029;28;20461;-83
2023/09/10 08:27:03;;;;;;;9.63;8.73;;;22.60;1.00;;;;;;5040960;28;20437;-83
2023/09/10 08:29:29;;;;;;;10.02;9.15;;;23.00;1.00;;;;;;5041439;28;20394;-83
2023/09/10 08:31:55;;;;;;;9.98;9.07;;;22.60;1.00;;;;;;5039642;28;20404;-84
2023/09/10 08:34:21;;;;;;;9.93;8.93;;;23.20;1.00;;;;;;5056532;28;21086;-83
2023/09/10 08:36:47;;;;;;;9.70;8.52;;;23.20;1.00;;;;;;5059500;28;20413;-83
2023/09/10 08:39:12;;;;;;;10.32;9.30;;;23.40;1.00;;;;;;5041950;28;20453;-83
2023/09/10 08:41:47;;;;;;;9.73;8.90;;;23.50;1.00;;;;;;5037810;28;20980;-82
2023/09/10 08:44:17;;;;;;;9.27;8.48;;;23.50;1.00;;;;;;5036971;28;20405;-83
2023/09/10 08:46:44;;;;;;;10.20;9.30;;;23.50;1.00;;;;;;5056058;28;20573;-82
2023/09/10 08:49:14;;;;;;;10.07;9.20;;;22.90;1.00;;;;;;5056878;28;20382;-83
2023/09/10 08:51:40;;;;;;;9.80;8.80;;;24.10;1.00;;;;;;5037350;28;20381;-83
2023/09/10 08:54:07;;;;;;;10.60;9.60;;;23.90;1.00;;;;;;5038802;28;20390;-84
2023/09/10 08:56:33;;;;;;;10.20;9.20;;;23.90;1.00;;;;;;5056636;28;20889;-83
2023/09/10 08:59:03;;;;;;;9.43;8.63;;;24.00;1.00;;;;;;5044116;28;20374;-82
2023/09/10 09:01:28;;;;;;;10.10;9.20;;;23.60;1.00;;;;;;5056263;28;21108;-83
2023/09/10 09:03:54;;;;;;;10.20;9.30;;;24.10;1.00;;;;;;5054778;28;20444;-83
2023/09/10 09:06:20;;;;;;;10.00;9.00;;;24.00;1.00;;;;;;5052139;28;20892;-83
2023/09/10 09:08:50;;;;;;;10.03;9.13;;;23.80;1.00;;;;;;5054131;28;20381;-83
2023/09/10 09:11:16;;;;;;;9.73;8.90;;;24.30;1.00;;;;;;5039192;28;20397;-84
2023/09/10 09:13:44;;;;;;;9.70;8.80;;;24.10;1.00;;;;;;5037354;28;20394;-82
2023/09/10 09:16:11;;;;;;;10.82;9.55;;;24.20;1.00;;;;;;5034801;28;20424;-83
2023/09/10 09:18:37;;;;;;;9.77;8.85;;;24.30;1.00;;;;;;5056106;28;20412;-83
2023/09/10 09:21:17;;;;;;;9.88;8.98;;;24.50;1.00;;;;;;5057698;28;20393;-83
2023/09/10 09:23:53;;;;;;;9.20;8.45;;;24.30;1.00;;;;;;5055743;28;20401;-84
2023/09/10 09:26:21;;;;;;;9.80;8.90;;;24.60;1.00;;;;;;5032856;28;20406;-82
2023/09/10 09:28:47;;;;;;;10.95;9.95;;;24.80;1.00;;;;;;5056871;28;20397;-83
2023/09/10 09:31:13;;;;;;;10.10;9.20;;;24.30;1.00;;;;;;5035873;28;20915;-82
2023/09/10 09:33:39;;;;;;;9.90;9.00;;;24.60;1.00;;;;;;5054104;28;20473;-82
2023/09/10 09:36:14;;;;;;;10.20;9.30;;;24.80;1.00;;;;;;5054325;28;20413;-82
2023/09/10 09:38:45;;;;;;;9.60;8.80;;;24.60;1.00;;;;;;5058560;28;20907;-82
2023/09/10 09:41:11;;;;;;;10.00;9.20;;;25.60;1.00;;;;;;5057859;28;20774;-83
2023/09/10 09:43:36;;;;;;;10.00;9.00;;;25.10;1.00;;;;;;5056113;28;20385;-82
2023/09/10 09:46:03;;;;;;;9.50;8.60;;;25.70;1.00;;;;;;5035084;28;20401;-83
2023/09/10 09:48:29;;;;;;;9.50;8.60;;;25.10;1.00;;;;;;5038005;28;20382;-82
2023/09/10 09:50:56;;;;;;;9.70;8.70;;;25.40;1.00;;;;;;5052549;28;20396;-82
2023/09/10 09:53:30;;;;;;;9.43;8.63;;;25.40;1.00;;;;;;5054480;28;20382;-82
2023/09/10 09:55:56;;;;;;;9.30;8.50;;;25.30;1.00;;;;;;5054732;28;20442;-82
2023/09/10 09:58:22;;;;;;;9.80;8.97;;;25.30;1.00;;;;;;5037119;28;20435;-83
2023/09/10 10:00:48;;;;;;;9.05;8.15;;;25.40;1.00;;;;;;5057607;28;20385;-82
2023/09/10 10:03:14;;;;;;;9.40;8.50;;;25.30;1.00;;;;;;5037990;28;20397;-82
2023/09/10 10:05:40;;;;;;;10.27;9.13;;;26.10;1.00;;;;;;5059274;28;20411;-83
2023/09/10 10:08:06;;;;;;;9.90;9.10;;;25.70;1.00;;;;;;5033001;28;20444;-82
2023/09/10 10:10:34;;;;;;;10.30;9.20;;;26.30;1.00;;;;;;5045501;28;20766;-82
2023/09/10 10:13:01;;;;;;;9.70;8.70;;;25.80;1.00;;;;;;5033900;28;20873;-83
2023/09/10 10:15:27;;;;;;;9.90;9.00;;;25.70;1.00;;;;;;5057033;28;20473;-82
2023/09/10 10:17:54;;;;;;;9.30;8.40;;;25.80;1.00;;;;;;5071711;28;20371;-82
2023/09/10 10:20:21;;;;;;;9.73;8.90;;;25.80;1.00;;;;;;5048096;28;20415;-82
2023/09/10 10:22:47;;;;;;;9.38;8.57;;;25.80;1.00;;;;;;5038784;28;20898;-82
2023/09/10 10:25:12;;;;;;;9.63;8.80;;;25.90;1.00;;;;;;5030290;28;20480;-83
2023/09/10 10:27:41;;;;;;;9.75;8.85;;;26.00;1.00;;;;;;5038835;28;20497;-82
2023/09/10 10:30:08;;;;;;;9.40;8.60;;;26.10;1.00;;;;;;5050608;28;20401;-82
2023/09/10 10:32:41;;;;;;;8.45;7.55;;;26.20;1.00;;;;;;5064849;28;20453;-82
2023/09/10 10:35:10;;;;;;;9.40;8.70;;;26.50;1.00;;;;;;5054678;28;20389;-83
2023/09/10 10:37:51;;;;;;;8.88;8.07;;;26.50;1.00;;;;;;5028465;28;20441;-83
2023/09/10 10:40:29;;;;;;;9.10;8.30;;;26.50;1.00;;;;;;5053200;28;20393;-82
2023/09/10 10:43:03;;;;;;;8.52;7.63;;;26.60;1.00;;;;;;5028996;28;20437;-82
2023/09/10 10:45:30;;;;;;;8.80;8.00;;;26.70;1.00;;;;;;5046601;28;20399;-82
2023/09/10 10:48:00;;;;;;;8.65;7.75;;;26.90;1.00;;;;;;5050195;28;20402;-82
2023/09/10 10:50:27;;;;;;;10.07;8.30;;;26.90;1.00;;;;;;5048265;28;20917;-82
2023/09/10 10:52:59;;;;;;;8.85;7.70;;;26.90;1.00;;;;;;5048166;28;20387;-82
2023/09/10 10:55:26;;;;;;;7.93;7.13;;;26.90;1.00;;;;;;5030046;28;20402;-82
2023/09/10 10:57:53;;;;;;;9.67;8.30;;;27.00;1.00;;;;;;5050801;28;20401;-82
2023/09/10 11:00:20;;;;;;;8.48;7.78;;;27.00;1.00;;;;;;5057187;28;20445;-82
2023/09/10 11:02:48;;;;;;;9.05;8.15;;;27.10;1.00;;;;;;5055259;28;20505;-82
2023/09/10 11:05:16;;;;;;;8.60;7.80;;;27.50;1.00;;;;;;5039554;28;22583;-82
2023/09/10 11:07:41;;;;;;;8.32;7.63;;;27.60;1.00;;;;;;5056180;28;20394;-82
2023/09/10 11:10:28;;;;;;;8.30;7.50;;;27.70;1.00;;;;;;5056802;28;20388;-83
2023/09/10 11:13:08;;;;;;;8.15;7.35;;;27.70;1.00;;;;;;5040961;28;20507;-82
2023/09/10 11:15:34;;;;;;;11.43;7.05;;;27.90;1.00;;;;;;5038142;28;20393;-80
2023/09/10 11:18:34;;;;;;;9.35;8.45;;;28.10;1.00;;;;;;5051541;28;20478;-80
2023/09/10 11:21:00;;;;;;;9.05;8.25;;;28.20;1.00;;;;;;5051014;28;20379;-81
2023/09/10 11:23:25;;;;;;;7.53;6.82;;;28.40;1.00;;;;;;5053700;28;20386;-80
2023/09/10 11:25:51;;;;;;;7.60;6.80;;;28.80;1.00;;;;;;5052768;28;20482;-81
2023/09/10 11:28:41;;;;;;;7.50;6.80;;;28.90;1.00;;;;;;5044709;28;20498;-81
2023/09/10 11:31:38;;;;;;;7.68;7.00;;;29.50;1.00;;;;;;5043917;28;20389;-82
2023/09/10 11:34:22;;;;;;;7.35;6.10;;;30.10;1.00;;;;;;5026007;28;20438;-81
2023/09/10 11:36:55;;;;;;;8.98;6.75;;;31.00;1.00;;;;;;5026367;28;20421;-82
2023/09/10 11:39:21;;;;;;;7.30;6.70;;;30.80;1.00;;;;;;5025401;28;20406;-83
2023/09/10 11:41:52;;;;;;;7.45;6.78;;;31.50;1.00;;;;;;5042232;28;20390;-82
2023/09/10 11:44:18;;;;;;;7.50;6.80;;;31.10;1.00;;;;;;5023171;28;20486;-82
2023/09/10 11:46:43;;;;;;;9.10;6.50;;;31.80;1.00;;;;;;5022224;28;20420;-82
2023/09/10 11:49:10;;;;;;;6.80;6.30;;;32.10;1.00;;;;;;5041847;28;20393;-84
2023/09/10 11:51:42;;;;;;;6.55;6.03;;;32.40;1.00;;;;;;5023904;28;20468;-83
2023/09/10 11:54:08;;;;;;;6.87;6.13;;;31.80;1.00;;;;;;5041696;28;20387;-82
2023/09/10 11:56:34;;;;;;;7.22;6.60;;;30.90;1.00;;;;;;5024793;28;20761;-82
2023/09/10 11:59:00;;;;;;;7.00;6.30;;;31.10;1.00;;;;;;5040087;28;20406;-82
2023/09/10 12:01:26;;;;;;;7.82;6.88;;;31.40;1.00;;;;;;5048048;28;20399;-83
2023/09/10 12:03:51;;;;;;;7.37;6.67;;;31.40;1.00;;;;;;5053420;28;20410;-83
2023/09/10 12:06:17;;;;;;;7.00;6.40;;;31.40;1.00;;;;;;5052094;28;20469;-82
2023/09/10 12:08:43;;;;;;;7.00;6.30;;;32.10;1.00;;;;;;5054722;28;20396;-84
2023/09/10 12:11:11;;;;;;;6.80;6.30;;;31.30;1.00;;;;;;5057654;28;20408;-84
2023/09/10 12:13:37;;;;;;;6.47;5.97;;;31.70;1.00;;;;;;5033517;28;20454;-84
2023/09/10 12:16:04;;;;;;;7.30;6.70;;;31.30;1.00;;;;;;5066944;28;20413;-84
2023/09/10 12:18:30;;;;;;;6.97;6.28;;;30.80;1.00;;;;;;5047589;28;20427;-84
2023/09/10 12:20:58;;;;;;;6.68;6.07;;;31.10;1.00;;;;;;5029465;28;20391;-84
2023/09/10 12:23:24;;;;;;;7.23;6.10;;;31.30;1.00;;;;;;5061042;28;20366;-85
2023/09/10 12:25:59;;;;;;;7.00;6.50;;;31.10;1.00;;;;;;5060186;28;20415;-84
2023/09/10 12:28:25;;;;;;;7.30;6.70;;;31.00;1.00;;;;;;5022744;28;20423;-84
2023/09/10 12:30:52;;;;;;;6.65;6.05;;;30.70;1.00;;;;;;5046412;28;20778;-84
2023/09/10 12:33:20;;;;;;;6.90;6.20;;;30.90;1.00;;;;;;5038279;28;20419;-84
2023/09/10 12:35:46;;;;;;;7.30;6.70;;;30.90;1.00;;;;;;5022704;28;20391;-84
2023/09/10 12:38:18;;;;;;;7.05;6.45;;;31.10;1.00;;;;;;5019598;28;20906;-84
2023/09/10 12:40:45;;;;;;;7.70;5.80;;;31.20;1.00;;;;;;5040275;28;20430;-84
2023/09/10 12:43:11;;;;;;;6.90;6.30;;;31.00;1.00;;;;;;5027714;28;20921;-85
2023/09/10 12:45:36;;;;;;;8.13;6.30;;;31.30;1.00;;;;;;5046427;28;20477;-84
2023/09/10 12:53:53;;;;;;;;;;;;;;;;;;;;;